Time;durP1;ratioP1;P1;durP2;ratioP2;P2;SDS_P1;SDS_P2;PMS_P1;PMS_P2;Temp;Humidity;BMP_temperature;BMP_pressure;BME280_temperature;BME280_humidity;BME280_pressure;Samples;Min_cycle;Max_cycle;Signal;HPM_P1;HPM_P2
2023/01/30 00:01:26;;;;;;;20.20;6.35;;;6.20;99.90;;;;;;5001363;28;20041;-70
2023/01/30 00:03:52;;;;;;;16.75;5.63;;;6.20;99.90;;;;;;5008876;28;20034;-71
2023/01/30 00:06:19;;;;;;;16.60;5.28;;;6.20;99.90;;;;;;5016976;28;20140;-71
2023/01/30 00:08:45;;;;;;;15.65;5.63;;;6.30;99.90;;;;;;5015366;28;20462;-71
2023/01/30 00:11:12;;;;;;;18.08;6.13;;;6.30;99.90;;;;;;5015757;28;20038;-71
2023/01/30 00:13:40;;;;;;;18.13;5.32;;;6.30;99.90;;;;;;5016848;28;20045;-71
2023/01/30 00:16:08;;;;;;;17.05;5.20;;;6.30;99.90;;;;;;5015317;28;20100;-71
2023/01/30 00:18:34;;;;;;;19.58;6.25;;;6.30;99.90;;;;;;5017918;28;20123;-71
2023/01/30 00:21:02;;;;;;;15.23;5.57;;;6.30;99.90;;;;;;5015165;28;20490;-72
2023/01/30 00:23:30;;;;;;;15.88;5.25;;;6.30;99.90;;;;;;4993908;28;20069;-71
2023/01/30 00:25:55;;;;;;;14.57;4.57;;;6.30;99.90;;;;;;4999035;28;20298;-71
2023/01/30 00:28:22;;;;;;;19.63;5.57;;;6.20;99.90;;;;;;5018746;28;20030;-71
2023/01/30 00:30:52;;;;;;;23.55;5.72;;;6.20;99.90;;;;;;5001116;28;20053;-71
2023/01/30 00:33:19;;;;;;;19.88;5.07;;;6.10;99.90;;;;;;4998878;28;20049;-71
2023/01/30 00:35:50;;;;;;;17.48;4.97;;;6.10;99.90;;;;;;5014087;28;20046;-70
2023/01/30 00:38:16;;;;;;;17.23;5.00;;;6.00;99.90;;;;;;4997999;28;20050;-70
2023/01/30 00:40:43;;;;;;;21.30;5.70;;;6.00;99.90;;;;;;5014182;28;20042;-70
2023/01/30 00:48:41;;;;;;;19.73;5.60;;;6.00;99.90;;;;;;5008410;28;20145;-70
2023/01/30 00:51:07;;;;;;;17.70;5.57;;;6.00;99.90;;;;;;4999129;28;20100;-70
2023/01/30 00:53:33;;;;;;;23.33;7.07;;;6.00;99.90;;;;;;4999485;28;20046;-70
2023/01/30 00:55:59;;;;;;;21.37;6.17;;;6.00;99.90;;;;;;4983439;28;20152;-70
2023/01/30 00:58:25;;;;;;;21.67;6.40;;;5.90;99.90;;;;;;5002762;28;20046;-71
2023/01/30 01:00:51;;;;;;;20.92;6.68;;;5.90;99.90;;;;;;5003029;28;20141;-70
2023/01/30 01:03:18;;;;;;;20.33;6.43;;;5.90;99.90;;;;;;5020817;28;20410;-70
2023/01/30 01:05:44;;;;;;;18.98;5.88;;;5.90;99.90;;;;;;4989350;28;20072;-71
2023/01/30 01:08:10;;;;;;;22.52;6.05;;;5.90;99.90;;;;;;5024901;28;20052;-71
2023/01/30 01:10:37;;;;;;;25.88;7.20;;;5.90;99.90;;;;;;5004825;28;20042;-71
2023/01/30 01:13:03;;;;;;;23.25;6.40;;;5.80;99.90;;;;;;5008549;28;20109;-71
2023/01/30 01:15:29;;;;;;;21.25;7.28;;;5.80;99.90;;;;;;5018499;28;20034;-71
2023/01/30 01:17:54;;;;;;;26.23;7.37;;;5.80;99.90;;;;;;5019223;28;20041;-71
2023/01/30 01:20:21;;;;;;;20.47;6.37;;;5.80;99.90;;;;;;5000982;28;20041;-73
2023/01/30 01:22:51;;;;;;;24.45;6.93;;;5.80;99.90;;;;;;5006604;28;20037;-73
2023/01/30 01:25:18;;;;;;;27.45;7.28;;;5.80;99.90;;;;;;5001435;28;20034;-73
2023/01/30 01:27:44;;;;;;;24.17;6.72;;;5.80;99.90;;;;;;5022418;28;20116;-71
2023/01/30 01:30:11;;;;;;;25.25;7.30;;;5.90;99.90;;;;;;4999481;28;20049;-71
2023/01/30 01:32:36;;;;;;;25.58;6.75;;;5.80;99.90;;;;;;5021133;28;20038;-71
2023/01/30 01:35:02;;;;;;;24.50;6.30;;;5.80;99.90;;;;;;5019107;28;20045;-71
2023/01/30 01:37:28;;;;;;;25.93;6.07;;;5.80;99.90;;;;;;5021285;28;20080;-71
2023/01/30 01:42:38;;;;;;;26.48;5.75;;;5.80;99.90;;;;;;5019939;28;20046;-71
2023/01/30 01:45:13;;;;;;;28.03;6.00;;;5.80;99.90;;;;;;5003011;28;20173;-71
2023/01/30 01:48:18;;;;;;;23.67;6.43;;;5.80;99.90;;;;;;5005495;28;20347;-71
2023/01/30 01:50:50;;;;;;;24.58;6.05;;;5.80;99.90;;;;;;5012389;28;20065;-71
2023/01/30 01:53:20;;;;;;;27.58;6.55;;;5.80;99.90;;;;;;5014435;28;20042;-71
2023/01/30 01:55:49;;;;;;;26.35;6.32;;;5.80;99.90;;;;;;5013219;28;20042;-71
2023/01/30 01:58:25;;;;;;;22.00;5.55;;;5.80;99.90;;;;;;5008831;28;20141;-71
2023/01/30 02:00:51;;;;;;;29.23;5.63;;;5.90;99.90;;;;;;5012848;28;20046;-71
2023/01/30 02:03:22;;;;;;;25.15;5.97;;;5.90;99.90;;;;;;5002329;28;20034;-71
2023/01/30 02:05:51;;;;;;;28.13;5.82;;;5.90;99.90;;;;;;5020082;28;20042;-71
2023/01/30 02:08:20;;;;;;;31.42;6.53;;;5.90;99.90;;;;;;5013926;28;20029;-71
2023/01/30 02:10:57;;;;;;;34.42;6.20;;;6.00;99.90;;;;;;5015712;28;20552;-71
2023/01/30 02:13:23;;;;;;;27.85;5.43;;;6.00;99.90;;;;;;5016335;28;20064;-71
2023/01/30 02:15:50;;;;;;;30.35;6.80;;;5.90;99.90;;;;;;5001902;28;20145;-71
2023/01/30 02:18:17;;;;;;;29.40;5.35;;;6.00;99.90;;;;;;5019073;28;20050;-71
2023/01/30 02:20:53;;;;;;;31.02;5.40;;;6.00;99.90;;;;;;5020611;28;20034;-71
2023/01/30 02:23:34;;;;;;;40.47;6.07;;;6.00;99.90;;;;;;5001327;28;20042;-71
2023/01/30 02:26:26;;;;;;;27.80;5.68;;;6.00;99.90;;;;;;5018323;28;20742;-71
2023/01/30 02:29:01;;;;;;;29.77;5.90;;;6.00;99.90;;;;;;5017048;28;20065;-72
2023/01/30 02:31:39;;;;;;;25.05;5.22;;;6.00;99.90;;;;;;5022137;28;20120;-72
2023/01/30 02:34:11;;;;;;;21.17;5.30;;;6.00;99.90;;;;;;5000042;28;20069;-72
2023/01/30 02:37:03;;;;;;;24.83;5.68;;;6.10;99.90;;;;;;5018687;28;20073;-72
2023/01/30 02:39:47;;;;;;;25.08;5.35;;;6.10;99.90;;;;;;4988547;28;20438;-72
2023/01/30 02:42:37;;;;;;;26.10;5.90;;;6.10;99.90;;;;;;5006379;28;20043;-72
2023/01/30 02:45:11;;;;;;;33.00;6.10;;;6.20;99.90;;;;;;5004273;28;20533;-72
2023/01/30 02:48:12;;;;;;;24.45;4.95;;;6.20;99.90;;;;;;4992257;28;20068;-72
2023/01/30 02:51:02;;;;;;;26.08;5.50;;;6.20;99.90;;;;;;4980440;28;20065;-72
2023/01/30 02:53:32;;;;;;;27.73;5.28;;;6.20;99.90;;;;;;4998293;28;20038;-72
2023/01/30 02:55:59;;;;;;;25.60;6.03;;;6.20;99.90;;;;;;5011174;28;20053;-71
2023/01/30 02:58:36;;;;;;;24.45;5.53;;;6.20;99.90;;;;;;5010348;28;20058;-71
2023/01/30 03:01:37;;;;;;;33.00;5.50;;;6.10;99.90;;;;;;5009939;28;20076;-71
2023/01/30 03:04:08;;;;;;;19.83;4.70;;;6.10;99.90;;;;;;5014740;28;20483;-72
2023/01/30 03:07:01;;;;;;;28.67;5.45;;;6.00;99.90;;;;;;5008158;28;20030;-72
2023/01/30 03:09:50;;;;;;;22.98;5.20;;;5.90;99.90;;;;;;4994853;28;20048;-72
2023/01/30 03:12:28;;;;;;;26.42;4.93;;;5.80;99.90;;;;;;5000425;28;20046;-72
2023/01/30 03:15:15;;;;;;;24.83;4.82;;;5.80;99.90;;;;;;4992888;28;20041;-72
2023/01/30 03:17:44;;;;;;;25.35;4.82;;;5.80;99.90;;;;;;4987603;28;20088;-72
2023/01/30 03:20:11;;;;;;;24.50;4.80;;;5.80;99.90;;;;;;5009328;28;20046;-71
2023/01/30 03:22:37;;;;;;;17.92;4.55;;;5.70;99.90;;;;;;5011892;28;20034;-71
2023/01/30 03:25:03;;;;;;;21.17;4.83;;;5.70;99.90;;;;;;5010980;28;20067;-72
2023/01/30 03:27:29;;;;;;;17.33;5.13;;;5.70;99.90;;;;;;4974418;28;20514;-72
2023/01/30 03:29:55;;;;;;;25.35;4.78;;;5.70;99.90;;;;;;5010039;28;20590;-72
2023/01/30 03:32:20;;;;;;;24.43;4.53;;;5.70;99.90;;;;;;5013263;28;20045;-72
2023/01/30 03:34:46;;;;;;;24.43;4.87;;;5.70;99.90;;;;;;4993801;28;20061;-71
2023/01/30 03:37:12;;;;;;;24.30;5.27;;;5.70;99.90;;;;;;4994157;28;20297;-71
2023/01/30 03:39:38;;;;;;;24.50;4.30;;;5.80;99.90;;;;;;4978437;28;20029;-71
2023/01/30 03:42:03;;;;;;;16.60;3.67;;;5.70;99.90;;;;;;5011008;28;20413;-72
2023/01/30 03:44:29;;;;;;;21.90;3.57;;;5.70;99.90;;;;;;5009881;28;20458;-72
2023/01/30 03:46:55;;;;;;;22.53;4.40;;;5.60;99.90;;;;;;5007457;28;20129;-72
2023/01/30 03:49:21;;;;;;;19.23;3.83;;;5.60;99.90;;;;;;4989865;28;20050;-72
2023/01/30 03:51:46;;;;;;;23.77;4.13;;;5.60;99.90;;;;;;5006569;28;20072;-72
2023/01/30 03:54:12;;;;;;;22.47;4.13;;;5.60;99.90;;;;;;5007671;28;20045;-72
2023/01/30 03:56:37;;;;;;;18.00;3.50;;;5.50;99.90;;;;;;4972319;28;20113;-72
2023/01/30 03:59:03;;;;;;;16.50;3.70;;;5.50;99.90;;;;;;5006247;28;20062;-72
2023/01/30 04:01:29;;;;;;;23.13;4.80;;;5.50;99.90;;;;;;5007409;28;20046;-72
2023/01/30 04:03:54;;;;;;;26.90;4.27;;;5.60;99.90;;;;;;5006576;28;20033;-72
2023/01/30 04:06:20;;;;;;;24.00;4.90;;;5.60;99.90;;;;;;4992294;28;20092;-72
2023/01/30 04:08:46;;;;;;;19.63;4.03;;;5.50;99.90;;;;;;5007301;28;20049;-72
2023/01/30 04:11:11;;;;;;;23.90;4.77;;;5.40;99.90;;;;;;5007947;28;20411;-72
2023/01/30 04:13:37;;;;;;;31.23;5.73;;;5.30;99.90;;;;;;5008946;28;20046;-71
2023/01/30 04:16:14;;;;;;;24.73;4.80;;;5.20;99.90;;;;;;4991829;28;20179;-71
2023/01/30 04:18:39;;;;;;;24.85;5.22;;;5.10;99.90;;;;;;5010144;28;20045;-72
2023/01/30 04:21:05;;;;;;;26.10;4.40;;;5.10;99.90;;;;;;5007665;28;20414;-72
2023/01/30 04:23:31;;;;;;;25.13;4.00;;;5.10;99.90;;;;;;5009107;28;20037;-72
2023/01/30 04:25:56;;;;;;;22.07;5.17;;;5.10;99.90;;;;;;4992832;28;20038;-72
2023/01/30 04:28:22;;;;;;;21.27;4.40;;;5.00;99.90;;;;;;4994420;28;20034;-72
2023/01/30 04:30:48;;;;;;;20.73;4.33;;;5.00;99.90;;;;;;4992489;28;20046;-72
2023/01/30 04:33:13;;;;;;;26.13;4.37;;;4.90;99.90;;;;;;5012148;28;20105;-72
2023/01/30 04:35:39;;;;;;;25.97;3.33;;;4.90;99.90;;;;;;5014276;28;20236;-72
2023/01/30 04:38:04;;;;;;;16.97;3.30;;;4.90;99.90;;;;;;4981279;28;20614;-72
2023/01/30 04:40:31;;;;;;;18.57;3.77;;;4.80;99.90;;;;;;5029640;28;20052;-72
2023/01/30 04:42:56;;;;;;;17.08;2.95;;;4.90;99.90;;;;;;5012229;28;20069;-71
2023/01/30 04:45:22;;;;;;;22.43;3.47;;;4.90;99.90;;;;;;5013958;28;20465;-72
2023/01/30 04:47:47;;;;;;;18.90;4.13;;;4.80;99.90;;;;;;5012541;28;20049;-72
2023/01/30 04:50:13;;;;;;;24.10;3.53;;;4.80;99.90;;;;;;5014238;28;20133;-72
2023/01/30 04:52:39;;;;;;;19.50;3.20;;;4.80;99.90;;;;;;4996971;28;20049;-72
2023/01/30 04:55:06;;;;;;;30.40;3.65;;;4.80;99.90;;;;;;4994720;28;20124;-72
2023/01/30 04:57:32;;;;;;;21.17;3.00;;;4.80;99.90;;;;;;5011720;28;20060;-72
2023/01/30 04:59:57;;;;;;;27.07;4.67;;;4.80;99.90;;;;;;4990980;28;20062;-71
2023/01/30 05:02:23;;;;;;;29.10;4.53;;;4.70;99.90;;;;;;5013221;28;20473;-71
2023/01/30 05:04:49;;;;;;;26.80;3.53;;;4.70;99.90;;;;;;5012763;28;20033;-71
2023/01/30 05:07:15;;;;;;;22.42;3.95;;;4.70;99.90;;;;;;4994125;28;20042;-72
2023/01/30 05:09:41;;;;;;;21.67;3.60;;;4.70;99.90;;;;;;5010636;28;20088;-71
2023/01/30 05:12:06;;;;;;;25.40;3.77;;;4.70;99.90;;;;;;4994511;28;20057;-72
2023/01/30 05:14:33;;;;;;;19.17;3.67;;;4.70;99.90;;;;;;5011779;28;20402;-72
2023/01/30 05:16:59;;;;;;;26.92;4.40;;;4.70;99.90;;;;;;5009911;28;20045;-71
2023/01/30 05:19:25;;;;;;;21.33;3.70;;;4.60;99.90;;;;;;5009411;28;20556;-71
2023/01/30 05:21:50;;;;;;;26.50;4.30;;;4.50;99.90;;;;;;5000987;28;20555;-71
2023/01/30 05:24:16;;;;;;;27.67;4.17;;;4.50;99.90;;;;;;4977184;28;20682;-71
2023/01/30 05:26:42;;;;;;;24.37;3.77;;;4.50;99.90;;;;;;5008925;28;20168;-71
2023/01/30 05:29:09;;;;;;;22.63;3.80;;;4.60;99.90;;;;;;4994689;28;20426;-71
2023/01/30 05:31:35;;;;;;;17.73;3.13;;;4.60;99.90;;;;;;4993538;28;20096;-71
2023/01/30 05:34:00;;;;;;;23.07;4.77;;;4.60;99.90;;;;;;5012683;28;20049;-71
2023/01/30 05:36:26;;;;;;;25.63;4.00;;;4.50;99.90;;;;;;5010859;28;20049;-71
2023/01/30 05:38:52;;;;;;;20.93;2.70;;;4.40;99.90;;;;;;5010568;28;20096;-71
2023/01/30 05:41:18;;;;;;;26.67;3.37;;;4.40;99.90;;;;;;5006492;28;20046;-71
2023/01/30 05:43:48;;;;;;;24.42;3.05;;;4.30;99.90;;;;;;5011537;28;20037;-71
2023/01/30 05:46:13;;;;;;;22.20;3.35;;;4.30;99.90;;;;;;5011097;28;20103;-71
2023/01/30 05:48:39;;;;;;;31.57;4.27;;;4.30;99.90;;;;;;5003802;28;20042;-72
2023/01/30 05:51:05;;;;;;;20.63;3.00;;;4.40;99.90;;;;;;5008904;28;20410;-72
2023/01/30 05:53:36;;;;;;;32.07;4.10;;;4.50;99.90;;;;;;5010974;28;20053;-72
2023/01/30 05:56:04;;;;;;;29.38;4.60;;;4.60;99.90;;;;;;4992686;28;20135;-72
2023/01/30 05:58:31;;;;;;;27.30;4.32;;;4.60;99.90;;;;;;5003538;28;20054;-72
2023/01/30 06:01:07;;;;;;;23.38;4.25;;;4.60;99.90;;;;;;5021750;28;20078;-72
2023/01/30 06:03:33;;;;;;;27.60;4.30;;;4.70;99.90;;;;;;5004389;28;20089;-72
2023/01/30 06:06:00;;;;;;;19.93;3.07;;;4.70;99.90;;;;;;5006293;28;20089;-72
2023/01/30 06:08:26;;;;;;;26.95;3.78;;;4.70;99.90;;;;;;4993794;28;20042;-72
2023/01/30 06:10:52;;;;;;;31.40;6.10;;;4.80;99.90;;;;;;4994374;28;20448;-73
2023/01/30 06:13:17;;;;;;;33.10;4.63;;;4.80;99.90;;;;;;5007074;28;20057;-72
2023/01/30 06:15:44;;;;;;;25.37;4.03;;;4.70;99.90;;;;;;4990032;28;20092;-72
2023/01/30 06:18:09;;;;;;;23.42;3.17;;;4.70;99.90;;;;;;5003708;28;20109;-72
2023/01/30 06:20:35;;;;;;;20.67;3.10;;;4.70;99.90;;;;;;4976543;28;20040;-72
2023/01/30 06:23:01;;;;;;;22.93;3.67;;;4.60;99.90;;;;;;5023004;28;20113;-72
2023/01/30 06:25:27;;;;;;;28.67;4.80;;;4.60;99.90;;;;;;5006749;28;20066;-72
2023/01/30 06:27:52;;;;;;;25.47;3.60;;;4.60;99.90;;;;;;5010834;28;20160;-72
2023/01/30 06:30:18;;;;;;;24.07;3.80;;;4.60;99.90;;;;;;4976187;28;20057;-72
2023/01/30 06:32:44;;;;;;;34.80;4.93;;;4.50;99.90;;;;;;5006425;28;20081;-72
2023/01/30 06:35:09;;;;;;;34.73;4.63;;;4.50;99.90;;;;;;4993205;28;20141;-72
2023/01/30 06:37:35;;;;;;;22.17;3.03;;;4.50;99.90;;;;;;5005175;28;20045;-72
2023/01/30 06:40:01;;;;;;;23.10;3.83;;;4.50;99.90;;;;;;4973669;28;20042;-72
2023/01/30 06:42:26;;;;;;;27.33;4.30;;;4.50;99.90;;;;;;4987189;28;20121;-72
2023/01/30 06:44:52;;;;;;;23.60;4.03;;;4.50;99.90;;;;;;4987420;28;20426;-72
2023/01/30 06:47:18;;;;;;;26.50;4.10;;;4.60;99.90;;;;;;4988499;28;20064;-72
2023/01/30 06:49:44;;;;;;;37.27;4.17;;;4.60;99.90;;;;;;4988406;28;20041;-71
2023/01/30 06:52:09;;;;;;;29.27;4.00;;;4.60;99.90;;;;;;5001313;28;20687;-71
2023/01/30 06:54:35;;;;;;;25.73;3.27;;;4.60;99.90;;;;;;4989907;28;20096;-72
2023/01/30 06:57:01;;;;;;;26.77;3.90;;;4.70;99.90;;;;;;4999616;28;20686;-72
2023/01/30 06:59:26;;;;;;;30.03;4.23;;;4.70;99.90;;;;;;5001121;28;20685;-71
2023/01/30 07:01:52;;;;;;;34.00;4.13;;;4.80;99.90;;;;;;5002678;28;20483;-72
2023/01/30 07:04:18;;;;;;;25.70;3.92;;;4.80;99.90;;;;;;5002298;28;20049;-72
2023/01/30 07:06:45;;;;;;;27.45;4.20;;;4.90;99.90;;;;;;4990595;28;20046;-71
2023/01/30 07:09:11;;;;;;;28.05;4.40;;;4.80;99.90;;;;;;5001810;28;20144;-72
2023/01/30 07:11:37;;;;;;;31.07;4.30;;;4.80;99.90;;;;;;5002908;28;20121;-72
2023/01/30 07:14:02;;;;;;;27.50;3.93;;;4.80;99.90;;;;;;5007475;28;20092;-72
2023/01/30 07:16:29;;;;;;;30.13;4.53;;;4.80;99.90;;;;;;4986685;28;20053;-72
2023/01/30 07:18:57;;;;;;;33.30;4.18;;;4.80;99.90;;;;;;5008333;28;20046;-72
2023/01/30 07:21:23;;;;;;;27.02;4.15;;;4.70;99.90;;;;;;4986020;28;20053;-72
2023/01/30 07:23:49;;;;;;;23.02;3.30;;;4.70;99.90;;;;;;4989659;28;20033;-72
2023/01/30 07:26:15;;;;;;;23.50;3.67;;;4.70;99.90;;;;;;5004417;28;20030;-71
2023/01/30 07:28:41;;;;;;;25.63;4.10;;;4.60;99.90;;;;;;5002299;28;20034;-72
2023/01/30 07:31:06;;;;;;;28.77;4.53;;;4.50;99.90;;;;;;4991612;28;20538;-72
2023/01/30 07:33:32;;;;;;;29.67;4.03;;;4.50;99.90;;;;;;4982804;28;20075;-72
2023/01/30 07:35:58;;;;;;;30.97;4.27;;;4.50;99.90;;;;;;5002613;28;20052;-72
2023/01/30 07:38:23;;;;;;;21.73;3.67;;;4.60;99.90;;;;;;5004755;28;20042;-72
2023/01/30 07:40:49;;;;;;;31.67;4.60;;;4.70;99.90;;;;;;5008141;28;20044;-72
2023/01/30 07:43:15;;;;;;;25.93;3.90;;;4.70;99.90;;;;;;5000961;28;20044;-72
2023/01/30 07:45:45;;;;;;;25.73;4.70;;;4.80;99.90;;;;;;4991088;28;20039;-72
2023/01/30 07:48:14;;;;;;;27.60;4.93;;;4.80;99.90;;;;;;4990774;28;20502;-72
2023/01/30 07:50:40;;;;;;;26.60;4.53;;;4.90;99.90;;;;;;4984917;28;20100;-72
2023/01/30 07:53:08;;;;;;;27.83;4.18;;;4.90;99.90;;;;;;4988371;28;20038;-72
2023/01/30 07:55:33;;;;;;;32.92;4.53;;;4.90;99.90;;;;;;5004804;28;20041;-72
2023/01/30 07:57:59;;;;;;;31.97;4.63;;;4.90;99.90;;;;;;4991932;28;20104;-72
2023/01/30 08:00:25;;;;;;;29.13;5.10;;;5.00;99.90;;;;;;4987197;28;20316;-74
2023/01/30 08:02:51;;;;;;;37.53;4.47;;;5.00;99.90;;;;;;4995194;28;20649;-72
2023/01/30 08:05:17;;;;;;;29.27;4.40;;;5.00;99.90;;;;;;5007618;28;20046;-73
2023/01/30 08:07:43;;;;;;;27.13;5.07;;;5.00;99.90;;;;;;5006617;28;20034;-73
2023/01/30 08:10:09;;;;;;;29.63;4.60;;;4.90;99.90;;;;;;4998543;28;20449;-72
2023/01/30 08:12:35;;;;;;;34.53;4.80;;;5.00;99.90;;;;;;5003017;28;20069;-73
2023/01/30 08:15:01;;;;;;;26.77;3.97;;;5.00;99.90;;;;;;5007164;28;20077;-73
2023/01/30 08:17:26;;;;;;;31.47;4.93;;;5.00;99.90;;;;;;5005790;28;20482;-73
2023/01/30 08:19:52;;;;;;;24.93;3.87;;;5.00;99.90;;;;;;4990867;28;20060;-73
2023/01/30 08:22:18;;;;;;;31.83;4.73;;;5.00;99.90;;;;;;5007175;28;20046;-73
2023/01/30 08:24:43;;;;;;;26.57;4.40;;;5.00;99.90;;;;;;5007484;28;20046;-73
2023/01/30 08:27:09;;;;;;;27.27;3.93;;;5.10;99.90;;;;;;5004454;28;20049;-73
2023/01/30 08:29:35;;;;;;;28.83;4.17;;;5.10;99.90;;;;;;5007342;28;20041;-73
2023/01/30 08:32:01;;;;;;;23.00;3.90;;;5.20;99.90;;;;;;5007403;28;20048;-73
2023/01/30 08:34:27;;;;;;;26.27;4.18;;;5.20;99.90;;;;;;5005989;28;20419;-73
2023/01/30 08:36:52;;;;;;;25.80;3.77;;;5.30;99.90;;;;;;5005634;28;20034;-73
2023/01/30 08:39:18;;;;;;;25.20;4.00;;;5.20;99.90;;;;;;5007030;28;20048;-73
2023/01/30 08:41:44;;;;;;;33.10;4.13;;;5.30;99.90;;;;;;5008040;28;20406;-73
2023/01/30 08:44:10;;;;;;;27.37;4.27;;;5.40;99.90;;;;;;4987313;28;20073;-73
2023/01/30 08:46:37;;;;;;;28.55;4.72;;;5.50;99.90;;;;;;5008060;28;20042;-73
2023/01/30 08:49:04;;;;;;;31.00;5.32;;;5.60;99.90;;;;;;4983466;28;20104;-74
2023/01/30 08:51:30;;;;;;;26.35;4.50;;;5.60;99.90;;;;;;5002248;28;20136;-73
2023/01/30 08:53:56;;;;;;;38.97;5.43;;;5.60;99.90;;;;;;5006548;28;20045;-73
2023/01/30 08:56:21;;;;;;;31.60;5.80;;;5.70;99.90;;;;;;4988013;28;20566;-73
2023/01/30 08:58:48;;;;;;;30.17;4.60;;;5.70;99.90;;;;;;5006639;28;20054;-73
2023/01/30 09:01:14;;;;;;;28.27;5.47;;;5.70;99.90;;;;;;5000660;28;20681;-74
2023/01/30 09:03:41;;;;;;;29.35;4.47;;;5.60;99.90;;;;;;4988852;28;20046;-74
2023/01/30 09:06:07;;;;;;;27.50;4.47;;;5.60;99.90;;;;;;4999603;28;20136;-73
2023/01/30 09:08:33;;;;;;;23.95;4.97;;;5.60;99.90;;;;;;5019363;28;20206;-73
2023/01/30 09:11:00;;;;;;;25.30;4.50;;;5.70;99.90;;;;;;5000223;28;20058;-73
2023/01/30 09:13:26;;;;;;;25.15;3.92;;;5.70;99.90;;;;;;4987304;28;20046;-73
2023/01/30 09:15:52;;;;;;;28.83;5.43;;;5.80;99.90;;;;;;5005729;28;20060;-73
2023/01/30 09:18:18;;;;;;;32.50;4.80;;;5.90;99.90;;;;;;4982157;28;20771;-73
2023/01/30 09:20:44;;;;;;;31.30;5.75;;;6.10;99.90;;;;;;5004585;28;20035;-73
2023/01/30 09:23:10;;;;;;;28.63;5.17;;;6.10;99.90;;;;;;5006153;28;20046;-73
2023/01/30 09:25:36;;;;;;;37.90;6.03;;;6.20;99.90;;;;;;5006368;28;20038;-73
2023/01/30 09:28:02;;;;;;;31.08;5.43;;;6.10;99.90;;;;;;4988642;28;20072;-73
2023/01/30 09:30:28;;;;;;;31.45;5.22;;;6.20;99.90;;;;;;4994967;28;20147;-73
2023/01/30 09:32:53;;;;;;;31.77;5.17;;;6.20;99.90;;;;;;5008761;28;20034;-73
2023/01/30 09:35:19;;;;;;;32.17;5.87;;;6.20;99.90;;;;;;5010463;28;20121;-74
2023/01/30 09:37:50;;;;;;;29.57;4.43;;;6.20;99.90;;;;;;5000796;28;20030;-73
2023/01/30 09:40:31;;;;;;;27.02;4.30;;;6.20;99.90;;;;;;4990517;28;20038;-73
2023/01/30 09:43:20;;;;;;;30.98;4.43;;;6.20;99.90;;;;;;5003946;28;20177;-73
2023/01/30 09:45:59;;;;;;;24.25;3.78;;;6.20;99.90;;;;;;5008243;28;20038;-73
2023/01/30 09:48:37;;;;;;;27.58;5.15;;;6.10;99.90;;;;;;5005330;28;20034;-74
2023/01/30 09:51:06;;;;;;;24.90;4.53;;;6.10;99.90;;;;;;5003003;28;20076;-72
2023/01/30 09:53:41;;;;;;;28.23;4.47;;;6.10;99.90;;;;;;5005769;28;20065;-73
2023/01/30 09:56:07;;;;;;;29.65;5.22;;;6.10;99.90;;;;;;5004643;28;20050;-73
2023/01/30 09:58:56;;;;;;;26.13;4.60;;;6.20;99.90;;;;;;4992182;28;20681;-73
2023/01/30 10:01:43;;;;;;;30.17;4.63;;;6.30;99.90;;;;;;5006732;28;20422;-73
2023/01/30 10:04:22;;;;;;;31.00;4.20;;;6.30;99.90;;;;;;5005385;28;20457;-73
2023/01/30 10:07:01;;;;;;;26.95;4.72;;;6.40;99.90;;;;;;5006857;28;20926;-73
2023/01/30 10:09:35;;;;;;;17.48;3.67;;;6.50;99.90;;;;;;5002673;28;20046;-74
2023/01/30 10:12:10;;;;;;;21.67;4.55;;;6.60;99.90;;;;;;5003337;28;20042;-74
2023/01/30 10:14:55;;;;;;;;;;;6.70;99.90;;;;;;5002055;28;20112;-73
2023/01/30 10:17:26;;;;;;;23.23;4.32;;;6.80;99.90;;;;;;4995669;28;20059;-73
2023/01/30 10:20:24;;;;;;;24.92;4.78;;;6.80;99.90;;;;;;5005358;28;20104;-74
2023/01/30 10:23:09;;;;;;;31.80;4.43;;;6.70;99.90;;;;;;4999367;28;20030;-74
2023/01/30 10:25:44;;;;;;;28.52;4.10;;;6.80;99.90;;;;;;5004248;28;20380;-74
2023/01/30 10:28:28;;;;;;;;;;;6.80;99.90;;;;;;5002930;28;20079;-74
2023/01/30 10:31:09;;;;;;;27.88;4.05;;;6.90;99.90;;;;;;4992503;28;19917;-74
2023/01/30 10:33:54;;;;;;;24.42;4.80;;;7.00;99.90;;;;;;4986676;28;20042;-74
2023/01/30 10:36:38;;;;;;;29.27;5.55;;;7.00;99.90;;;;;;4990796;28;20058;-75
2023/01/30 10:39:19;;;;;;;20.98;4.28;;;7.00;99.90;;;;;;5025158;28;20045;-74
2023/01/30 10:41:54;;;;;;;31.25;4.72;;;7.00;99.90;;;;;;4999964;28;20063;-75
2023/01/30 10:44:22;;;;;;;25.50;4.13;;;7.10;99.90;;;;;;5006362;28;20099;-74
2023/01/30 10:47:12;;;;;;;26.23;4.50;;;7.10;99.90;;;;;;5023830;28;20037;-75
2023/01/30 10:49:45;;;;;;;12.57;2.45;;;6.90;99.90;;;;;;5000452;28;20056;-75
2023/01/30 10:52:40;;;;;;;17.58;2.33;;;6.70;99.90;;;;;;5006031;28;20129;-74
2023/01/30 10:55:26;;;;;;;17.05;3.05;;;6.60;99.90;;;;;;5000972;28;20044;-74
2023/01/30 10:58:25;;;;;;;21.50;3.60;;;6.30;99.90;;;;;;4998068;28;20100;-74
2023/01/30 11:00:59;;;;;;;19.65;3.97;;;6.20;99.90;;;;;;5003859;28;20153;-74
2023/01/30 11:03:39;;;;;;;21.38;2.55;;;6.10;99.90;;;;;;5003540;28;20034;-74
2023/01/30 11:06:11;;;;;;;23.63;3.50;;;5.90;99.90;;;;;;4990473;28;20044;-73
2023/01/30 11:08:37;;;;;;;23.67;3.03;;;5.70;99.90;;;;;;4995462;28;20042;-74
2023/01/30 11:11:26;;;;;;;28.17;4.77;;;5.50;99.90;;;;;;4988747;28;20052;-75
2023/01/30 11:14:09;;;;;;;32.33;4.95;;;5.50;99.90;;;;;;5021356;28;20052;-74
2023/01/30 11:16:54;;;;;;;22.40;4.15;;;5.70;99.90;;;;;;4985615;28;20551;-73
2023/01/30 11:19:33;;;;;;;26.70;4.53;;;6.00;99.90;;;;;;4996812;28;20042;-75
2023/01/30 11:22:04;;;;;;;28.67;4.63;;;6.20;99.90;;;;;;5004286;28;20108;-74
2023/01/30 11:24:39;;;;;;;26.73;3.67;;;6.50;99.90;;;;;;5001049;28;20042;-74
2023/01/30 11:27:10;;;;;;;32.78;4.53;;;6.70;99.90;;;;;;4997076;28;20084;-74
2023/01/30 11:29:38;;;;;;;28.85;4.93;;;6.90;99.90;;;;;;5003326;28;20137;-75
2023/01/30 11:32:25;;;;;;;27.02;4.72;;;6.90;99.90;;;;;;5002361;28;20054;-74
2023/01/30 11:35:23;;;;;;;25.02;3.80;;;6.90;99.90;;;;;;5004024;28;20281;-73
2023/01/30 11:37:52;;;;;;;10.50;1.90;;;6.80;99.90;;;;;;4995789;28;20049;-73
2023/01/30 11:40:19;;;;;;;22.17;3.00;;;6.20;99.90;;;;;;5004142;28;20076;-73
2023/01/30 11:42:47;;;;;;;18.42;3.60;;;5.70;99.90;;;;;;5009447;28;20046;-73
2023/01/30 11:45:14;;;;;;;25.15;3.75;;;5.60;99.90;;;;;;5006732;28;20099;-73
2023/01/30 11:47:51;;;;;;;23.45;3.42;;;5.60;99.90;;;;;;5009554;28;20076;-72
2023/01/30 11:50:18;;;;;;;22.10;3.95;;;5.70;99.90;;;;;;5005450;28;20046;-72
2023/01/30 11:52:45;;;;;;;25.60;3.80;;;5.80;99.90;;;;;;5007502;28;20044;-72
2023/01/30 11:55:18;;;;;;;34.33;4.22;;;5.90;99.90;;;;;;5011366;28;20128;-73
2023/01/30 11:57:49;;;;;;;29.85;4.13;;;5.90;99.90;;;;;;5012680;28;20045;-73
2023/01/30 12:00:22;;;;;;;29.45;4.82;;;6.00;99.90;;;;;;5014622;28;20077;-73
2023/01/30 12:02:52;;;;;;;23.30;4.10;;;5.90;99.90;;;;;;5013604;28;20056;-73
2023/01/30 12:05:33;;;;;;;18.10;2.92;;;5.80;99.90;;;;;;4998563;28;20072;-73
2023/01/30 12:08:22;;;;;;;17.25;2.13;;;5.70;99.90;;;;;;5010157;28;20043;-74
2023/01/30 12:10:58;;;;;;;15.85;2.42;;;5.80;99.90;;;;;;5014768;28;20273;-74
2023/01/30 12:13:44;;;;;;;20.92;2.95;;;5.80;99.90;;;;;;5012381;28;20070;-74
2023/01/30 12:16:24;;;;;;;14.40;2.30;;;5.90;99.90;;;;;;5013959;28;20341;-73
2023/01/30 12:19:01;;;;;;;15.90;2.10;;;6.00;99.90;;;;;;5004288;28;20049;-74
2023/01/30 12:21:57;;;;;;;14.15;1.98;;;6.00;99.90;;;;;;5005232;28;20061;-72
2023/01/30 12:24:49;;;;;;;20.02;3.25;;;6.10;99.90;;;;;;5008374;28;20125;-73
2023/01/30 12:27:24;;;;;;;16.15;2.53;;;6.20;99.90;;;;;;5011484;28;20129;-73
2023/01/30 12:30:09;;;;;;;13.88;2.47;;;6.20;99.90;;;;;;5005336;28;20483;-73
2023/01/30 12:32:34;;;;;;;19.95;3.10;;;6.30;99.90;;;;;;5008976;28;20046;-72
2023/01/30 12:35:01;;;;;;;17.60;2.77;;;6.40;99.90;;;;;;5007271;28;20073;-73
2023/01/30 12:37:55;;;;;;;18.52;3.20;;;6.40;99.90;;;;;;5012089;28;20465;-72
2023/01/30 12:40:21;;;;;;;18.92;3.97;;;6.40;99.90;;;;;;4989905;28;20112;-73
2023/01/30 12:42:59;;;;;;;32.33;3.50;;;6.50;99.90;;;;;;4992676;28;20494;-74
2023/01/30 12:45:38;;;;;;;29.08;3.60;;;6.50;99.90;;;;;;5007014;28;20033;-74
2023/01/30 12:48:33;;;;;;;23.77;4.13;;;6.50;99.90;;;;;;5009997;28;20128;-74
2023/01/30 12:51:06;;;;;;;23.23;4.07;;;6.60;99.90;;;;;;5000181;28;20128;-74
2023/01/30 12:54:02;;;;;;;25.73;3.70;;;6.60;99.90;;;;;;4983642;28;20049;-74
2023/01/30 12:56:57;;;;;;;29.17;4.70;;;6.60;99.90;;;;;;5004389;28;20054;-73
2023/01/30 12:59:37;;;;;;;33.78;5.25;;;6.70;99.90;;;;;;5004854;28;20450;-73
2023/01/30 13:02:12;;;;;;;27.98;4.28;;;6.70;99.90;;;;;;5010420;28;20046;-73
2023/01/30 13:05:03;;;;;;;30.50;4.18;;;6.80;99.90;;;;;;5011940;28;20040;-73
2023/01/30 13:07:37;;;;;;;32.50;6.07;;;6.80;99.90;;;;;;4986022;28;20807;-73
2023/01/30 13:10:17;;;;;;;27.38;5.30;;;6.80;99.90;;;;;;5013612;28;20033;-74
2023/01/30 13:13:10;;;;;;;26.27;4.75;;;6.80;99.90;;;;;;5015152;28;20487;-73
2023/01/30 13:16:21;;;;;;;37.58;5.35;;;6.80;99.90;;;;;;4997465;28;20821;-73